Time;durP1;ratioP1;P1;durP2;ratioP2;P2;SDS_P1;SDS_P2;PMS_P1;PMS_P2;Temp;Humidity;BMP_temperature;BMP_pressure;BME280_temperature;BME280_humidity;BME280_pressure;Samples;Min_cycle;Max_cycle;Signal;HPM_P1;HPM_P2
2022/11/04 00:01:40;;;;;;;5.97;2.85;;;;;;;9.75;87.91;100082.22;5085046;28;20031;-78
2022/11/04 00:04:06;;;;;;;4.90;3.17;;;;;;;9.71;88.14;100089.25;5085244;28;20496;-78
2022/11/04 00:06:32;;;;;;;5.13;3.17;;;;;;;9.68;88.23;100091.97;5085473;28;20594;-78
2022/11/04 00:08:58;;;;;;;3.83;2.63;;;;;;;9.65;88.17;100094.66;5083262;28;20107;-78
2022/11/04 00:14:10;;;;;;;2.60;1.90;;;;;;;9.54;88.18;100089.84;5085542;28;20035;-78
2022/11/04 00:19:20;;;;;;;2.17;1.20;;;;;;;9.49;87.85;100099.53;5084837;28;20047;-78
2022/11/04 00:29:39;;;;;;;1.33;1.00;;;;;;;9.37;86.65;100097.34;5079046;28;20085;-78
2022/11/04 00:34:48;;;;;;;0.50;0.50;;;;;;;9.27;86.70;100097.63;5079281;28;20032;-78
2022/11/04 00:37:13;;;;;;;2.05;0.60;;;;;;;9.26;86.71;100095.94;5079062;28;20028;-78
2022/11/04 00:39:38;;;;;;;1.40;0.60;;;;;;;9.23;86.55;100103.81;5079087;28;20104;-78
2022/11/04 00:42:04;;;;;;;1.80;1.20;;;;;;;9.18;85.96;100105.72;5079201;28;20035;-78
2022/11/04 00:44:29;;;;;;;1.95;1.30;;;;;;;9.18;86.49;100108.34;5079048;28;20075;-78
2022/11/04 00:46:54;;;;;;;1.95;1.13;;;;;;;9.16;86.70;100110.13;5079231;28;20035;-78
2022/11/04 00:49:20;;;;;;;2.28;1.48;;;;;;;9.13;86.86;100106.78;5079093;28;20029;-78
2022/11/04 00:51:45;;;;;;;1.70;1.48;;;;;;;9.09;86.95;100112.06;5079240;28;20067;-78
2022/11/04 00:54:10;;;;;;;2.97;1.80;;;;;;;9.07;87.56;100110.38;5079102;28;20431;-78
2022/11/04 00:56:39;;;;;;;5.13;2.22;;;;;;;9.04;88.12;100107.91;5077787;28;20074;-78
2022/11/04 00:59:05;;;;;;;3.80;2.80;;;;;;;9.00;88.56;100101.97;5077228;28;20212;-78
2022/11/04 01:01:30;;;;;;;6.40;3.17;;;;;;;8.99;89.01;100113.22;5079011;28;20109;-78
2022/11/04 01:03:56;;;;;;;4.30;3.30;;;;;;;9.00;89.31;100107.16;5078888;28;20032;-78
2022/11/04 01:06:23;;;;;;;4.55;3.47;;;;;;;9.01;89.64;100102.81;5078958;28;20423;-78
2022/11/04 01:08:54;;;;;;;5.45;3.97;;;;;;;9.02;90.03;100112.31;5078887;28;20020;-77
2022/11/04 01:11:19;;;;;;;5.10;3.78;;;;;;;9.01;90.12;100115.78;5078922;28;20080;-77
2022/11/04 01:13:45;;;;;;;5.65;4.18;;;;;;;9.03;90.01;100116.59;5078816;28;20109;-77
2022/11/04 01:16:11;;;;;;;5.70;4.25;;;;;;;9.03;90.12;100119.19;5078635;28;20176;-78
2022/11/04 01:18:37;;;;;;;5.93;4.40;;;;;;;9.05;89.99;100114.81;5078949;28;20028;-77
2022/11/04 01:21:04;;;;;;;6.03;4.60;;;;;;;9.07;90.10;100119.03;5078906;28;20024;-77
2022/11/04 01:23:31;;;;;;;5.80;4.10;;;;;;;9.10;89.91;100131.06;5078788;28;20024;-78
2022/11/04 01:25:56;;;;;;;5.57;4.28;;;;;;;9.11;89.99;100133.63;5078797;28;20027;-78
2022/11/04 01:28:21;;;;;;;9.45;4.80;;;;;;;9.13;90.30;100133.56;5077613;28;20103;-78
2022/11/04 01:30:47;;;;;;;6.93;4.50;;;;;;;9.15;90.26;100133.50;5078916;28;20024;-78
2022/11/04 01:33:12;;;;;;;7.45;4.75;;;;;;;9.13;90.00;100138.75;5078795;28;20090;-77
2022/11/04 01:35:37;;;;;;;9.07;4.88;;;;;;;9.14;89.82;100134.44;5078194;28;20017;-78
2022/11/04 01:38:03;;;;;;;7.90;4.93;;;;;;;9.15;89.38;100136.09;5076203;28;20123;-78
2022/11/04 01:40:28;;;;;;;8.93;5.20;;;;;;;9.14;89.80;100140.47;5075328;28;20040;-78
2022/11/04 01:42:53;;;;;;;7.38;5.20;;;;;;;9.15;89.46;100139.56;5075478;28;20017;-78
2022/11/04 01:45:20;;;;;;;8.70;5.07;;;;;;;9.13;89.62;100138.75;5075409;28;20468;-78
2022/11/04 01:47:54;;;;;;;7.05;4.45;;;;;;;9.09;89.54;100132.81;5074859;28;20021;-78
2022/11/04 01:50:22;;;;;;;7.82;5.07;;;;;;;9.08;89.66;100138.03;5075437;28;20029;-77
2022/11/04 01:52:56;;;;;;;8.40;5.20;;;;;;;9.07;89.46;100133.75;5075305;28;20021;-77
2022/11/04 01:55:29;;;;;;;6.70;5.00;;;;;;;9.04;89.31;100141.66;5075221;28;20029;-78
2022/11/04 01:57:57;;;;;;;8.45;5.13;;;;;;;9.00;89.45;100140.88;5074947;28;20460;-78
2022/11/04 02:00:22;;;;;;;7.65;4.75;;;;;;;8.96;89.41;100140.13;5075195;28;20024;-77
2022/11/04 02:02:57;;;;;;;9.70;5.45;;;;;;;8.93;89.41;100141.97;5075106;28;20077;-78
2022/11/04 02:05:23;;;;;;;7.45;4.70;;;;;;;8.88;89.39;100139.50;5075051;28;20021;-77
2022/11/04 02:07:50;;;;;;;8.40;4.68;;;;;;;8.84;89.60;100148.28;5074390;28;20040;-77
2022/11/04 02:10:17;;;;;;;6.35;4.28;;;;;;;8.81;89.58;100140.59;5074587;28;20111;-78
2022/11/04 02:12:49;;;;;;;5.93;4.15;;;;;;;8.78;89.45;100148.47;5074796;28;20048;-77
2022/11/04 02:15:40;;;;;;;6.97;4.03;;;;;;;8.76;89.63;100152.84;5074799;28;20033;-78
2022/11/04 02:18:12;;;;;;;8.85;3.97;;;;;;;8.73;89.61;100152.91;5074555;28;20032;-78
2022/11/04 02:21:08;;;;;;;7.07;3.42;;;;;;;8.70;89.49;100158.22;5074420;28;20035;-78
2022/11/04 02:24:03;;;;;;;6.05;3.58;;;;;;;8.67;89.63;100158.31;5074412;28;20086;-77
2022/11/04 02:26:31;;;;;;;8.23;2.95;;;;;;;8.61;89.50;100162.75;5069729;28;20037;-77
2022/11/04 02:29:17;;;;;;;5.85;2.95;;;;;;;8.59;89.41;100167.13;5074702;28;20044;-77
2022/11/04 02:32:04;;;;;;;6.57;2.92;;;;;;;8.56;89.47;100168.97;5074569;28;20491;-78
2022/11/04 02:34:48;;;;;;;4.28;2.53;;;;;;;8.55;89.45;100167.28;5074155;28;20111;-77
2022/11/04 02:37:26;;;;;;;5.45;2.30;;;;;;;8.52;89.27;100163.03;5074474;28;20031;-77
2022/11/04 02:40:04;;;;;;;4.97;2.15;;;;;;;8.50;89.15;100159.63;5074532;28;20391;-77
2022/11/04 02:42:37;;;;;;;3.97;2.15;;;;;;;8.47;89.22;100167.47;5074241;28;20054;-77
2022/11/04 02:45:14;;;;;;;4.35;2.17;;;;;;;8.43;89.05;100164.13;5074197;28;20056;-77
2022/11/04 02:47:44;;;;;;;4.32;1.88;;;;;;;8.42;89.03;100161.53;5074462;28;20361;-77
2022/11/04 02:50:25;;;;;;;4.40;2.00;;;;;;;8.39;89.31;100172.84;5074195;28;20016;-77
2022/11/04 02:53:03;;;;;;;5.33;1.77;;;;;;;8.37;89.45;100173.81;5074218;28;20031;-77
2022/11/04 02:55:37;;;;;;;4.90;1.90;;;;;;;8.33;89.25;100173.00;5073743;28;20361;-78
2022/11/04 02:58:08;;;;;;;4.20;1.50;;;;;;;8.29;89.38;100172.25;5073621;28;20103;-77
2022/11/04 03:00:38;;;;;;;2.72;1.45;;;;;;;8.28;89.28;100172.31;5073829;28;20074;-77
2022/11/04 03:03:09;;;;;;;4.32;1.50;;;;;;;8.26;89.37;100176.69;5073855;28;20119;-77
2022/11/04 03:05:38;;;;;;;3.70;1.20;;;;;;;8.24;89.08;100179.28;5073890;28;20029;-78
2022/11/04 03:08:14;;;;;;;3.17;1.70;;;;;;;8.22;89.33;100178.47;5073861;28;20375;-77
2022/11/04 03:10:47;;;;;;;2.50;1.35;;;;;;;8.20;89.35;100182.84;5073552;28;20033;-78
2022/11/04 03:13:25;;;;;;;3.00;1.10;;;;;;;8.21;89.08;100179.38;5073784;28;20025;-78
2022/11/04 03:15:56;;;;;;;2.65;1.10;;;;;;;8.19;88.86;100179.44;5073564;28;20031;-78
2022/11/04 03:18:56;;;;;;;4.05;1.42;;;;;;;8.20;88.85;100188.03;5072393;28;20055;-78
2022/11/04 03:21:26;;;;;;;3.42;1.10;;;;;;;8.17;88.81;100191.56;5073614;28;20077;-78
2022/11/04 03:23:52;;;;;;;4.57;1.40;;;;;;;8.17;88.74;100193.31;5073448;28;20020;-78
2022/11/04 03:26:54;;;;;;;2.55;1.10;;;;;;;8.15;88.94;100195.09;5072210;28;20111;-77
2022/11/04 03:29:28;;;;;;;;;;;;;;;8.16;88.28;100197.63;5073889;28;20052;-77
2022/11/04 03:32:21;;;;;;;2.42;1.00;;;;;;;8.12;88.81;100203.78;5073388;28;20352;-77
2022/11/04 03:34:47;;;;;;;2.50;1.00;;;;;;;8.09;88.80;100205.59;5072941;28;20013;-77
2022/11/04 03:37:13;;;;;;;2.58;1.15;;;;;;;8.06;88.96;100203.97;5072025;28;20028;-77
2022/11/04 03:39:38;;;;;;;2.85;1.10;;;;;;;8.03;88.74;100199.69;5073322;28;20031;-77
2022/11/04 03:42:18;;;;;;;1.95;0.82;;;;;;;7.99;89.16;100205.84;5073276;28;20115;-77
2022/11/04 03:44:55;;;;;;;3.20;1.08;;;;;;;7.97;89.15;100207.63;5071486;28;20021;-77
2022/11/04 03:47:23;;;;;;;3.08;1.15;;;;;;;7.93;89.32;100211.19;5073184;28;20024;-77
2022/11/04 03:49:51;;;;;;;4.20;1.30;;;;;;;7.89;89.67;100212.13;5072731;28;20112;-77
2022/11/04 03:52:17;;;;;;;2.67;1.20;;;;;;;7.86;89.37;100212.22;5073047;28;20098;-77
2022/11/04 03:54:43;;;;;;;4.97;1.48;;;;;;;7.84;89.27;100208.84;5072698;28;20017;-78
2022/11/04 03:57:15;;;;;;;4.75;1.30;;;;;;;7.82;89.58;100208.03;5072814;28;20071;-77
2022/11/04 04:00:05;;;;;;;10.07;2.03;;;;;;;7.79;89.51;100214.09;5073027;28;20112;-77
2022/11/04 04:02:39;;;;;;;5.00;1.90;;;;;;;7.77;89.79;100209.88;5072511;28;20074;-78
2022/11/04 04:05:12;;;;;;;5.35;2.00;;;;;;;7.76;89.71;100214.19;5071875;28;20025;-78
2022/11/04 04:07:43;;;;;;;5.65;2.00;;;;;;;7.74;89.85;100216.81;5072471;28;20025;-78
2022/11/04 04:10:40;;;;;;;5.35;1.95;;;;;;;7.71;89.85;100214.28;5072842;28;20021;-78
2022/11/04 04:13:28;;;;;;;6.55;2.35;;;;;;;7.68;89.64;100216.97;5072918;28;20068;-78
2022/11/04 04:16:06;;;;;;;6.20;2.40;;;;;;;7.65;89.75;100213.59;5072550;28;20024;-78
2022/11/04 04:18:53;;;;;;;6.03;2.33;;;;;;;7.60;89.52;100224.06;5072373;28;20020;-78
2022/11/04 04:21:23;;;;;;;7.45;2.40;;;;;;;7.56;89.89;100232.78;5066335;28;20024;-77
2022/11/04 04:29:24;;;;;;;5.30;2.25;;;;;;;7.42;90.12;100235.69;5072787;28;20056;-77
2022/11/04 04:31:56;;;;;;;6.30;2.30;;;;;;;7.39;90.41;100235.75;5072661;28;20028;-78
2022/11/04 04:34:25;;;;;;;4.45;2.13;;;;;;;7.37;90.36;100234.94;5072380;28;20448;-78
2022/11/04 04:36:57;;;;;;;5.15;2.10;;;;;;;7.34;90.65;100247.94;5072641;28;20032;-78
2022/11/04 04:47:30;;;;;;;;;;;;;;;7.30;89.62;100257.53;5072853;28;20123;-78
2022/11/04 04:49:58;;;;;;;6.28;1.60;;;;;;;7.26;90.12;100254.13;5072447;28;19908;-77
2022/11/04 04:52:27;;;;;;;5.80;1.63;;;;;;;7.23;90.54;100250.75;5072489;28;20385;-78
2022/11/04 04:54:52;;;;;;;4.78;1.77;;;;;;;7.23;90.62;100255.94;5071705;28;20119;-78
2022/11/04 04:57:18;;;;;;;4.70;1.60;;;;;;;7.21;90.68;100249.94;5072318;28;20052;-77
2022/11/04 04:59:43;;;;;;;4.60;1.73;;;;;;;7.20;90.64;100249.09;5071834;28;20063;-78
2022/11/04 05:02:08;;;;;;;4.20;1.48;;;;;;;7.21;90.47;100252.53;5071980;28;20429;-78
2022/11/04 05:04:33;;;;;;;4.05;1.50;;;;;;;7.19;90.72;100257.75;5071970;28;20020;-77
2022/11/04 05:06:59;;;;;;;3.65;1.50;;;;;;;7.20;90.53;100253.41;5072348;28;20451;-78
2022/11/04 05:09:24;;;;;;;5.10;1.55;;;;;;;7.19;90.63;100256.88;5072279;28;20111;-77
2022/11/04 05:11:49;;;;;;;3.58;1.60;;;;;;;7.18;91.03;100257.75;5071839;28;20041;-77
2022/11/04 05:14:14;;;;;;;2.75;1.60;;;;;;;7.17;90.72;100258.66;5074242;28;20081;-78
2022/11/04 05:16:40;;;;;;;4.90;1.50;;;;;;;7.17;90.94;100264.69;5074310;28;20033;-78
2022/11/04 05:19:05;;;;;;;4.78;1.80;;;;;;;7.14;90.92;100263.03;5075942;28;20028;-78
2022/11/04 05:21:30;;;;;;;5.85;1.65;;;;;;;7.14;90.88;100268.19;5075672;28;20031;-78
2022/11/04 05:23:56;;;;;;;4.97;1.60;;;;;;;7.12;90.87;100264.78;5075804;28;20538;-78
2022/11/04 05:26:21;;;;;;;5.57;1.33;;;;;;;7.10;90.63;100266.53;5075642;28;20081;-78
2022/11/04 05:28:46;;;;;;;2.85;1.38;;;;;;;7.10;90.55;100278.63;5075514;28;20426;-78
2022/11/04 05:31:12;;;;;;;3.15;1.50;;;;;;;7.09;90.47;100284.66;5075045;28;20039;-77
2022/11/04 05:33:37;;;;;;;5.80;1.60;;;;;;;7.06;90.52;100288.19;5075194;28;20016;-78
2022/11/04 05:36:07;;;;;;;4.75;1.77;;;;;;;7.07;90.77;100287.28;5075530;28;20063;-78
2022/11/04 05:38:33;;;;;;;4.53;1.60;;;;;;;7.05;90.92;100286.47;5074737;28;20509;-78
2022/11/04 05:40:58;;;;;;;5.60;1.70;;;;;;;7.06;90.96;100289.94;5075269;28;20036;-77
2022/11/04 05:43:23;;;;;;;4.72;1.60;;;;;;;7.06;90.91;100290.75;5075565;28;20024;-78
2022/11/04 05:45:48;;;;;;;3.90;1.52;;;;;;;7.08;90.96;100299.34;5075296;28;20078;-78
2022/11/04 05:48:14;;;;;;;4.43;1.63;;;;;;;7.10;91.15;100296.72;5073224;28;20035;-78
2022/11/04 05:50:40;;;;;;;2.95;1.40;;;;;;;7.10;91.37;100305.34;5074972;28;20027;-78
2022/11/04 05:53:05;;;;;;;4.07;1.65;;;;;;;7.12;91.29;100306.16;5074836;28;20479;-78
2022/11/04 05:55:31;;;;;;;4.38;1.90;;;;;;;7.17;91.34;100310.41;5074735;28;20028;-78
2022/11/04 05:57:59;;;;;;;4.50;1.55;;;;;;;7.18;91.40;100312.09;5071826;28;20020;-78
2022/11/04 06:00:25;;;;;;;3.72;1.70;;;;;;;7.19;91.44;100314.66;5074686;28;20115;-78
2022/11/04 06:02:50;;;;;;;4.38;1.60;;;;;;;7.21;91.38;100314.63;5074330;28;20467;-78
2022/11/04 06:05:16;;;;;;;5.65;1.77;;;;;;;7.25;91.35;100311.09;5073792;28;20032;-78
2022/11/04 06:07:41;;;;;;;4.78;1.67;;;;;;;7.27;91.42;100309.31;5074326;28;20051;-78
2022/11/04 06:10:07;;;;;;;4.00;1.63;;;;;;;7.29;91.44;100316.16;5074389;28;20032;-78
2022/11/04 06:12:32;;;;;;;3.63;1.63;;;;;;;7.32;91.68;100322.16;5074851;28;20132;-78
2022/11/04 06:14:58;;;;;;;6.13;1.88;;;;;;;7.32;91.53;100323.03;5073493;28;20037;-78
2022/11/04 06:17:23;;;;;;;3.85;1.60;;;;;;;7.36;91.48;100323.81;5073756;28;20057;-78
2022/11/04 06:19:49;;;;;;;5.63;1.88;;;;;;;7.40;91.14;100326.28;5074054;28;20440;-78
2022/11/04 06:22:17;;;;;;;3.92;1.88;;;;;;;7.40;91.40;100326.28;5074146;28;20078;-78
2022/11/04 06:24:43;;;;;;;5.90;1.95;;;;;;;7.40;91.50;100328.03;5073132;28;20021;-78
2022/11/04 06:27:09;;;;;;;4.18;1.90;;;;;;;7.40;91.19;100328.88;5073578;28;20078;-77
2022/11/04 06:29:39;;;;;;;5.13;1.55;;;;;;;7.41;91.23;100328.00;5074577;28;20455;-78
2022/11/04 06:32:10;;;;;;;3.27;1.50;;;;;;;7.40;91.29;100328.88;5073273;28;20028;-78
2022/11/04 06:34:36;;;;;;;3.55;1.70;;;;;;;7.41;91.01;100335.75;5074044;28;20281;-78
2022/11/04 06:37:03;;;;;;;5.80;1.58;;;;;;;7.41;90.80;100335.75;5074380;28;20020;-78
2022/11/04 06:39:29;;;;;;;4.28;1.60;;;;;;;7.42;91.06;100336.63;5074469;28;20077;-78
2022/11/04 06:41:54;;;;;;;3.50;1.77;;;;;;;7.46;90.99;100342.59;5073150;28;20021;-78
2022/11/04 06:44:20;;;;;;;3.38;1.60;;;;;;;7.48;91.09;100343.41;5072606;28;20028;-78
2022/11/04 06:46:45;;;;;;;4.53;1.88;;;;;;;7.50;90.96;100347.66;5074370;28;20449;-78
2022/11/04 06:49:16;;;;;;;3.80;1.83;;;;;;;7.53;91.07;100341.56;5074342;28;20135;-78
2022/11/04 06:51:42;;;;;;;4.72;1.77;;;;;;;7.52;90.46;100345.91;5074223;28;20017;-78
2022/11/04 06:54:08;;;;;;;5.20;1.60;;;;;;;7.53;90.83;100352.78;5073853;28;20040;-78
2022/11/04 06:56:33;;;;;;;4.60;1.65;;;;;;;7.57;90.98;100369.97;5074037;28;20463;-78
2022/11/04 06:58:59;;;;;;;3.80;1.73;;;;;;;7.60;91.12;100364.69;5073944;28;20021;-78
2022/11/04 07:01:28;;;;;;;9.90;2.33;;;;;;;7.64;90.68;100365.50;5073990;28;20495;-78
2022/11/04 07:03:55;;;;;;;3.00;1.63;;;;;;;7.66;90.23;100366.31;5073633;28;20024;-77
2022/11/04 07:06:21;;;;;;;5.15;1.58;;;;;;;7.68;90.77;100372.31;5074070;28;20031;-77
2022/11/04 07:08:48;;;;;;;4.07;1.80;;;;;;;7.69;90.29;100375.75;5073925;28;20013;-78
2022/11/04 07:11:15;;;;;;;5.32;1.95;;;;;;;7.69;90.72;100376.59;5073120;28;20154;-78
2022/11/04 07:13:41;;;;;;;6.38;1.83;;;;;;;7.73;90.59;100379.97;5073521;28;20036;-78
2022/11/04 07:16:07;;;;;;;3.83;1.83;;;;;;;7.75;90.51;100381.66;5073631;28;20024;-77
2022/11/04 07:18:33;;;;;;;5.30;1.67;;;;;;;7.78;90.66;100382.47;5073680;28;20029;-78
2022/11/04 07:20:58;;;;;;;4.25;1.85;;;;;;;7.82;90.62;100389.28;5073473;28;20036;-78
2022/11/04 07:23:24;;;;;;;4.97;1.60;;;;;;;7.86;90.59;100393.50;5073248;28;20085;-77
2022/11/04 07:25:49;;;;;;;4.07;2.05;;;;;;;7.89;90.46;100393.44;5073449;28;20108;-78
2022/11/04 07:28:15;;;;;;;4.78;1.90;;;;;;;7.93;90.75;100400.25;5073187;28;20049;-78
2022/11/04 07:30:40;;;;;;;3.58;1.67;;;;;;;7.96;90.76;100405.38;5073457;28;20046;-78
2022/11/04 07:33:07;;;;;;;5.20;2.00;;;;;;;7.98;90.63;100406.19;5073408;28;20021;-78
2022/11/04 07:35:32;;;;;;;4.18;1.63;;;;;;;8.00;90.31;100401.84;5072349;28;20025;-78
2022/11/04 07:37:57;;;;;;;8.15;2.13;;;;;;;8.04;90.72;100411.22;5072462;28;20468;-78
2022/11/04 07:40:22;;;;;;;7.13;2.15;;;;;;;8.08;90.61;100403.38;5073094;28;20133;-78
2022/11/04 07:42:48;;;;;;;4.40;1.85;;;;;;;8.10;90.42;100402.50;5071927;28;20028;-78
2022/11/04 07:45:13;;;;;;;5.72;2.20;;;;;;;8.14;90.31;100405.84;5071856;28;20204;-78
2022/11/04 07:47:38;;;;;;;3.70;1.92;;;;;;;8.16;90.62;100404.09;5072422;28;20376;-78
2022/11/04 07:50:04;;;;;;;5.90;1.95;;;;;;;8.17;90.63;100406.63;5072576;28;20390;-78
2022/11/04 07:52:29;;;;;;;7.60;2.03;;;;;;;8.20;90.26;100405.69;5073060;28;20460;-78
2022/11/04 07:54:55;;;;;;;4.70;2.00;;;;;;;8.20;90.28;100410.88;5073068;28;20033;-78
2022/11/04 07:57:21;;;;;;;5.45;1.73;;;;;;;8.22;90.11;100409.09;5072937;28;20028;-78
2022/11/04 07:59:46;;;;;;;5.45;2.03;;;;;;;8.20;89.98;100413.47;5073009;28;20027;-78
2022/11/04 08:02:11;;;;;;;4.53;1.85;;;;;;;8.23;89.77;100416.00;5073067;28;20036;-78
2022/11/04 08:04:37;;;;;;;4.50;1.83;;;;;;;8.24;90.26;100416.88;5072847;28;20108;-78
2022/11/04 08:07:04;;;;;;;3.95;1.88;;;;;;;8.26;90.23;100420.28;5072377;28;20036;-78
2022/11/04 08:09:30;;;;;;;6.63;2.20;;;;;;;8.27;89.71;100417.63;5064090;28;21436;-77
2022/11/04 08:11:55;;;;;;;4.05;2.20;;;;;;;8.30;90.03;100427.94;5080810;28;20226;-77
2022/11/04 08:14:21;;;;;;;5.13;2.03;;;;;;;8.34;90.10;100434.75;5082375;28;20028;-77
2022/11/04 08:16:49;;;;;;;6.80;1.88;;;;;;;8.39;89.88;100438.97;5080929;28;20490;-78
2022/11/04 08:19:14;;;;;;;3.70;1.90;;;;;;;8.44;90.02;100447.50;5084386;28;20035;-78
2022/11/04 08:21:40;;;;;;;4.38;2.20;;;;;;;8.46;89.97;100435.34;5084310;28;20383;-77
2022/11/04 08:24:05;;;;;;;4.55;2.05;;;;;;;8.52;90.00;100436.97;5085459;28;20028;-78
2022/11/04 08:26:30;;;;;;;5.32;2.35;;;;;;;8.57;90.05;100443.75;5084127;28;20027;-78
2022/11/04 08:28:56;;;;;;;6.95;2.03;;;;;;;8.60;89.92;100445.44;5082774;28;20104;-77
2022/11/04 08:31:25;;;;;;;5.72;2.20;;;;;;;8.62;89.94;100448.84;5083889;28;20036;-77
2022/11/04 08:33:51;;;;;;;8.40;2.70;;;;;;;8.64;90.19;100455.69;5084917;28;20103;-78
2022/11/04 08:36:20;;;;;;;7.50;2.35;;;;;;;8.70;90.26;100456.44;5084469;28;20046;-78
2022/11/04 08:38:46;;;;;;;4.80;2.05;;;;;;;8.75;90.41;100459.75;5084536;28;20038;-78
2022/11/04 08:41:13;;;;;;;5.82;2.10;;;;;;;8.78;89.79;100459.69;5085312;28;20114;-78
2022/11/04 08:43:39;;;;;;;6.85;2.35;;;;;;;8.83;90.10;100465.63;5083142;28;20059;-78
2022/11/04 08:46:06;;;;;;;5.45;2.30;;;;;;;8.89;90.14;100467.22;5084496;28;20387;-78
2022/11/04 08:48:32;;;;;;;7.13;2.58;;;;;;;8.93;89.77;100467.09;5086539;28;20471;-78
2022/11/04 08:50:58;;;;;;;7.20;3.10;;;;;;;8.95;89.41;100467.91;5088708;28;20032;-78
2022/11/04 08:53:24;;;;;;;5.88;2.80;;;;;;;8.96;89.32;100472.22;5087048;28;20078;-78
2022/11/04 08:55:49;;;;;;;6.85;2.60;;;;;;;8.94;89.31;100467.97;5088745;28;20024;-78
2022/11/04 08:58:16;;;;;;;7.03;2.28;;;;;;;8.93;89.26;100474.03;5086550;28;20367;-78
2022/11/04 09:00:41;;;;;;;6.25;2.60;;;;;;;8.96;89.84;100479.16;5087187;28;20145;-77
2022/11/04 09:03:07;;;;;;;6.38;2.67;;;;;;;8.99;89.68;100488.59;5088756;28;20477;-78
2022/11/04 09:05:33;;;;;;;5.75;2.58;;;;;;;9.03;89.80;100490.22;5088532;28;20047;-78
2022/11/04 09:07:59;;;;;;;3.85;2.42;;;;;;;9.06;89.56;100503.09;5086742;28;20028;-78
2022/11/04 09:10:25;;;;;;;9.00;2.63;;;;;;;9.10;89.60;100499.53;5087711;28;20032;-78
2022/11/04 09:12:50;;;;;;;6.40;2.58;;;;;;;9.14;89.33;100501.19;5087395;28;20093;-78
2022/11/04 09:15:15;;;;;;;4.93;2.78;;;;;;;9.21;89.23;100505.34;5088912;28;20032;-78
2022/11/04 09:17:43;;;;;;;6.47;2.65;;;;;;;9.30;88.86;100508.56;5086735;28;20110;-78
2022/11/04 09:20:09;;;;;;;6.70;2.70;;;;;;;9.39;88.57;100513.53;5086802;28;20110;-78
2022/11/04 09:22:34;;;;;;;6.13;2.88;;;;;;;9.45;88.15;100513.38;5086900;28;20110;-78
2022/11/04 09:24:59;;;;;;;5.97;2.63;;;;;;;9.52;88.53;100517.50;5088653;28;20077;-78
2022/11/04 09:27:24;;;;;;;8.15;2.80;;;;;;;9.57;88.20;100518.22;5088408;28;20086;-77
2022/11/04 09:29:50;;;;;;;6.22;2.70;;;;;;;9.61;88.30;100524.22;5087777;28;20534;-78
2022/11/04 09:32:15;;;;;;;5.60;2.70;;;;;;;9.64;87.50;100529.31;5088138;28;20032;-78
2022/11/04 09:34:40;;;;;;;6.47;2.60;;;;;;;9.69;87.56;100529.19;5087588;28;20024;-78
2022/11/04 09:37:06;;;;;;;6.35;2.70;;;;;;;9.71;87.72;100530.00;5087924;28;20085;-77
2022/11/04 09:39:31;;;;;;;5.72;2.53;;;;;;;9.74;87.92;100535.09;5086881;28;20028;-78
2022/11/04 09:42:38;;;;;;;5.93;2.70;;;;;;;9.80;87.60;100540.13;5088002;28;20039;-77
2022/11/04 09:45:10;;;;;;;6.20;2.55;;;;;;;9.81;87.25;100541.84;5081665;28;20370;-77
2022/11/04 09:47:38;;;;;;;6.30;2.85;;;;;;;9.84;87.90;100546.97;5086183;28;20040;-77
2022/11/04 09:50:07;;;;;;;7.85;3.22;;;;;;;9.87;88.18;100546.88;5087618;28;20019;-77
2022/11/04 09:52:37;;;;;;;6.13;3.22;;;;;;;9.92;88.26;100544.16;5087305;28;20055;-77
2022/11/04 09:55:19;;;;;;;6.53;2.88;;;;;;;9.97;88.44;100549.22;5087465;28;20043;-78
2022/11/04 09:57:53;;;;;;;5.38;2.78;;;;;;;9.97;87.81;100552.69;5085590;28;20028;-78
2022/11/04 10:00:19;;;;;;;6.80;2.90;;;;;;;10.02;88.22;100561.19;5085700;28;20032;-78
2022/11/04 10:03:02;;;;;;;6.28;2.97;;;;;;;10.08;87.94;100562.75;5087786;28;20374;-77
2022/11/04 10:05:40;;;;;;;5.70;3.00;;;;;;;10.16;87.65;100572.94;5087548;28;20047;-78
2022/11/04 10:08:27;;;;;;;7.10;3.00;;;;;;;10.25;87.75;100571.81;5084394;28;20043;-77
2022/11/04 10:11:20;;;;;;;8.50;2.90;;;;;;;10.30;86.78;100572.53;5087484;28;20031;-77
2022/11/04 10:14:13;;;;;;;7.03;2.95;;;;;;;10.36;86.12;100559.38;5087325;28;21235;-78
2022/11/04 10:16:46;;;;;;;7.88;2.78;;;;;;;10.38;85.37;100562.81;5068896;28;20033;-78
2022/11/04 10:19:38;;;;;;;8.35;2.70;;;;;;;10.44;86.38;100566.97;5086839;28;20034;-78
2022/11/04 10:22:14;;;;;;;5.22;2.70;;;;;;;10.47;85.80;100566.88;5065169;28;20100;-78
2022/11/04 10:24:57;;;;;;;5.55;2.55;;;;;;;10.48;85.80;100564.22;5083553;28;20040;-78
2022/11/04 10:27:27;;;;;;;6.20;3.08;;;;;;;10.51;85.58;100568.47;5084715;28;20036;-77
2022/11/04 10:29:58;;;;;;;7.75;3.05;;;;;;;10.58;85.76;100574.38;5085406;28;20613;-78
2022/11/04 10:32:30;;;;;;;7.80;3.30;;;;;;;10.65;85.66;100590.66;5087230;28;20085;-78
2022/11/04 10:35:27;;;;;;;7.05;3.33;;;;;;;10.70;85.26;100581.81;5085910;28;20577;-77
2022/11/04 10:37:55;;;;;;;10.50;3.45;;;;;;;10.74;84.87;100591.22;5087431;28;20031;-77
2022/11/04 10:40:27;;;;;;;7.65;3.30;;;;;;;10.78;83.87;100582.41;5086783;28;20027;-77
2022/11/04 10:42:57;;;;;;;8.63;3.58;;;;;;;10.81;83.29;100593.63;5083778;28;20028;-77
2022/11/04 10:45:32;;;;;;;9.75;3.65;;;;;;;10.83;82.93;100592.69;5084431;28;20106;-77
2022/11/04 10:48:05;;;;;;;8.13;3.53;;;;;;;10.87;82.90;100590.84;5086608;28;20020;-77
2022/11/04 10:50:38;;;;;;;9.55;3.90;;;;;;;10.92;83.33;100591.56;5086137;28;20103;-77
2022/11/04 10:53:15;;;;;;;11.30;4.13;;;;;;;10.96;83.00;100590.53;5085548;28;20028;-78
2022/11/04 10:55:55;;;;;;;10.60;4.70;;;;;;;10.99;82.64;100587.84;5086621;28;20023;-77
2022/11/04 10:58:24;;;;;;;9.35;5.00;;;;;;;11.06;82.37;100591.09;5085278;28;20024;-77
2022/11/04 11:00:50;;;;;;;8.77;4.95;;;;;;;11.11;nan;100590.94;5087026;28;20071;-77
2022/11/04 11:03:25;;;;;;;13.15;6.10;;;;;;;11.20;82.74;100595.88;5085106;28;20036;-78
2022/11/04 11:05:52;;;;;;;10.77;6.15;;;;;;;11.29;82.02;100586.91;5084172;28;20028;-78
2022/11/04 11:08:31;;;;;;;11.63;6.57;;;;;;;11.36;81.94;100584.06;5083551;28;20020;-77
2022/11/04 11:10:56;;;;;;;12.57;7.00;;;;;;;11.37;80.47;100580.53;5084314;28;20433;-77
2022/11/04 11:13:32;;;;;;;11.68;6.53;;;;;;;11.39;80.85;100583.94;5083897;28;20036;-78
2022/11/04 11:16:10;;;;;;;13.30;7.13;;;;;;;11.38;79.54;100592.66;5086330;28;20031;-78
2022/11/04 11:18:37;;;;;;;11.07;6.88;;;;;;;11.32;79.59;100592.84;5083881;28;20081;-77
2022/11/04 11:21:08;;;;;;;12.82;7.22;;;;;;;11.31;79.70;100613.75;5084236;28;20044;-77
2022/11/04 11:23:46;;;;;;;14.82;7.90;;;;;;;11.29;79.85;100618.16;5081825;28;20440;-77
2022/11/04 11:26:18;;;;;;;14.65;8.13;;;;;;;11.23;79.16;100620.06;5082424;28;20024;-77
2022/11/04 11:28:56;;;;;;;11.18;7.30;;;;;;;11.22;79.72;100625.31;5085033;28;20027;-77
2022/11/04 11:31:25;;;;;;;13.13;6.93;;;;;;;11.20;79.71;100609.72;5085552;28;20110;-77
2022/11/04 11:33:56;;;;;;;10.02;6.30;;;;;;;11.23;79.85;100608.78;5085083;28;20094;-78
2022/11/04 11:36:32;;;;;;;;;;;;;;;11.27;81.10;100606.94;5086018;28;20046;-78
2022/11/04 11:39:00;;;;;;;11.05;5.95;;;;;;;11.26;79.81;100606.09;5080602;28;19916;-78
2022/11/04 11:41:32;;;;;;;11.27;6.47;;;;;;;11.31;80.88;100613.75;5084168;28;20476;-78
2022/11/04 11:44:01;;;;;;;11.38;5.72;;;;;;;11.38;78.76;100612.63;5084274;28;20034;-78
2022/11/04 11:46:30;;;;;;;14.93;6.30;;;;;;;11.41;78.45;100612.53;5085891;28;20603;-78
2022/11/04 11:49:00;;;;;;;11.52;6.38;;;;;;;11.49;79.41;100615.75;5084670;28;20107;-78
2022/11/04 11:51:45;;;;;;;11.32;5.93;;;;;;;11.56;79.76;100621.59;5081370;28;20028;-77
2022/11/04 11:54:28;;;;;;;10.85;5.03;;;;;;;11.61;80.33;100618.84;5084685;28;20035;-78
2022/11/04 11:56:56;;;;;;;9.27;4.60;;;;;;;11.63;79.41;100617.88;5083375;28;20047;-78
2022/11/04 11:59:56;;;;;;;9.65;4.97;;;;;;;11.63;77.79;100617.03;5084465;28;20042;-78
2022/11/04 12:02:45;;;;;;;9.60;4.35;;;;;;;11.63;78.85;100617.88;5081232;28;20046;-78
2022/11/04 12:05:12;;;;;;;13.00;4.75;;;;;;;11.63;78.13;100623.09;5082413;28;20063;-78
2022/11/04 12:07:47;;;;;;;8.20;4.50;;;;;;;11.68;79.44;100621.19;5085736;28;20059;-77
2022/11/04 12:10:40;;;;;;;10.43;5.00;;;;;;;11.71;77.43;100630.66;5083226;28;20503;-78
2022/11/04 12:13:17;;;;;;;10.57;5.05;;;;;;;11.68;78.18;100625.56;5084998;28;20055;-77
2022/11/04 12:16:01;;;;;;;7.88;4.45;;;;;;;11.74;78.66;100627.09;5085092;28;20024;-77